createdAt,value
2023-04-09T00:01:08.753Z,12.45
2023-04-09T00:02:41.297Z,13.68
2023-04-09T00:04:13.244Z,14.48
2023-04-09T00:05:45.062Z,13.32
2023-04-09T00:07:16.883Z,14.18
2023-04-09T00:08:48.716Z,14.07
2023-04-09T00:10:20.615Z,13.63
2023-04-09T00:11:52.581Z,13.40
2023-04-09T00:13:31.934Z,13.27
2023-04-09T00:15:15.044Z,13.00
2023-04-09T00:16:49.501Z,12.82
2023-04-09T00:18:21.450Z,13.65
2023-04-09T00:19:53.220Z,12.93
2023-04-09T00:21:25.034Z,12.63
2023-04-09T00:22:56.936Z,12.23
2023-04-09T00:24:28.727Z,11.15
2023-04-09T00:26:01.022Z,12.10
2023-04-09T00:27:32.813Z,12.23
2023-04-09T00:29:04.641Z,12.88
2023-04-09T00:30:36.453Z,12.27
2023-04-09T00:32:08.645Z,11.88
2023-04-09T00:33:40.658Z,12.20
2023-04-09T00:35:12.693Z,12.35
2023-04-09T00:36:44.601Z,12.65
2023-04-09T00:38:16.580Z,12.50
2023-04-09T00:39:48.486Z,13.55
2023-04-09T00:41:21.032Z,13.10
2023-04-09T00:42:52.935Z,11.75
2023-04-09T00:44:25.662Z,12.60
2023-04-09T00:45:59.197Z,12.07
2023-04-09T00:47:32.166Z,14.07
2023-04-09T00:49:04.314Z,14.43
2023-04-09T00:50:36.580Z,13.23
2023-04-09T00:52:08.443Z,14.40
2023-04-09T00:53:40.918Z,13.77
2023-04-09T00:55:13.178Z,13.48
2023-04-09T00:56:45.786Z,12.68
2023-04-09T00:58:17.719Z,12.35
2023-04-09T00:59:49.516Z,12.27
2023-04-09T01:01:21.635Z,12.88
2023-04-09T01:02:54.184Z,13.50
2023-04-09T01:04:26.266Z,12.98
2023-04-09T01:06:08.288Z,13.02
2023-04-09T01:07:54.484Z,14.20
2023-04-09T01:09:36.244Z,14.65
2023-04-09T01:11:24.270Z,13.95
2023-04-09T01:13:16.006Z,13.68
2023-04-09T01:14:57.599Z,14.38
2023-04-09T01:18:11.878Z,14.60
2023-04-09T01:20:04.216Z,14.48
2023-04-09T01:21:37.279Z,14.43
2023-04-09T01:23:30.729Z,14.60
2023-04-09T01:25:19.871Z,15.02
2023-04-09T01:27:03.251Z,15.18
2023-04-09T01:28:46.733Z,14.73
2023-04-09T01:30:20.189Z,15.75
2023-04-09T01:31:52.865Z,16.20
2023-04-09T01:33:25.742Z,16.42
2023-04-09T01:34:57.640Z,16.55
2023-04-09T01:36:32.486Z,15.23
2023-04-09T01:38:05.075Z,15.18
2023-04-09T01:39:38.050Z,15.80
2023-04-09T01:41:15.057Z,14.07
2023-04-09T01:42:48.359Z,15.10
2023-04-09T01:44:20.964Z,12.43
2023-04-09T01:45:54.269Z,12.68
2023-04-09T01:47:27.734Z,12.52
2023-04-09T01:48:59.631Z,13.82
2023-04-09T01:50:32.979Z,14.27
2023-04-09T01:52:05.134Z,14.68
2023-04-09T01:53:36.999Z,14.27
2023-04-09T01:55:09.104Z,14.50
2023-04-09T01:56:49.722Z,15.43
2023-04-09T01:58:21.897Z,10.80
2023-04-09T01:59:55.053Z,14.60
2023-04-09T02:01:35.793Z,15.27
2023-04-09T02:03:21.247Z,15.13
2023-04-09T02:04:54.418Z,13.60
2023-04-09T02:06:32.713Z,14.20
2023-04-09T02:08:09.704Z,14.40
2023-04-09T02:09:43.943Z,13.88
2023-04-09T02:11:16.558Z,14.95
2023-04-09T02:12:51.240Z,15.07
2023-04-09T02:14:26.735Z,14.07
2023-04-09T02:16:00.300Z,13.48
2023-04-09T02:17:32.957Z,14.60
2023-04-09T02:19:04.870Z,14.15
2023-04-09T02:20:36.710Z,13.00
2023-04-09T02:22:09.313Z,14.35
2023-04-09T02:23:41.155Z,13.90
2023-04-09T02:25:13.032Z,14.63
2023-04-09T02:26:44.894Z,13.85
2023-04-09T02:28:16.754Z,13.52
2023-04-09T02:29:48.553Z,14.05
2023-04-09T02:31:20.389Z,13.70
2023-04-09T02:32:52.237Z,14.70
2023-04-09T02:34:24.870Z,14.13
2023-04-09T02:35:56.707Z,14.43
2023-04-09T02:37:28.484Z,14.32
2023-04-09T02:39:00.278Z,13.65
2023-04-09T02:40:32.110Z,14.43
2023-04-09T02:42:04.000Z,13.95
2023-04-09T02:43:35.869Z,13.90
2023-04-09T02:45:08.308Z,13.95
2023-04-09T02:46:41.544Z,13.85
2023-04-09T02:48:13.405Z,13.45
2023-04-09T02:49:45.564Z,13.48
2023-04-09T02:51:17.463Z,13.93
2023-04-09T02:52:49.313Z,13.32
2023-04-09T02:54:21.313Z,13.15
2023-04-09T02:55:53.146Z,13.45
2023-04-09T02:57:25.045Z,13.63
2023-04-09T02:58:59.636Z,14.40
2023-04-09T03:00:31.474Z,14.60
2023-04-09T03:02:03.565Z,15.10
2023-04-09T03:03:35.535Z,13.43
2023-04-09T03:05:07.841Z,14.48
2023-04-09T03:06:39.682Z,14.35
2023-04-09T03:08:11.488Z,15.27
2023-04-09T03:09:43.406Z,15.43
2023-04-09T03:11:16.108Z,14.88
2023-04-09T03:12:48.174Z,14.50
2023-04-09T03:14:19.988Z,15.75
2023-04-09T03:15:53.341Z,15.10
2023-04-09T03:17:27.951Z,14.98
2023-04-09T03:18:59.755Z,16.35
2023-04-09T03:20:31.610Z,15.98
2023-04-09T03:22:03.484Z,17.48
2023-04-09T03:23:37.468Z,15.85
2023-04-09T03:25:11.532Z,15.77
2023-04-09T03:26:43.445Z,15.55
2023-04-09T03:28:16.700Z,16.17
2023-04-09T03:29:56.110Z,16.48
2023-04-09T03:31:33.104Z,15.85
2023-04-09T03:33:05.094Z,15.35
2023-04-09T03:34:41.337Z,15.90
2023-04-09T03:36:13.618Z,16.02
2023-04-09T03:38:01.016Z,15.43
2023-04-09T03:39:32.804Z,16.13
2023-04-09T03:41:04.609Z,16.48
2023-04-09T03:42:37.897Z,15.73
2023-04-09T03:44:10.877Z,15.90
2023-04-09T03:45:53.632Z,14.70
2023-04-09T03:47:31.046Z,15.80
2023-04-09T03:49:03.415Z,14.55
2023-04-09T03:50:43.112Z,15.50
2023-04-09T03:52:18.453Z,15.75
2023-04-09T03:53:56.864Z,16.50
2023-04-09T03:55:28.839Z,17.17
2023-04-09T03:57:01.691Z,15.73
2023-04-09T03:58:33.653Z,15.80
2023-04-09T04:00:06.915Z,15.95
2023-04-09T04:01:55.274Z,14.85
2023-04-09T04:03:28.609Z,15.35
2023-04-09T04:05:14.133Z,14.70
2023-04-09T04:06:51.131Z,15.48
2023-04-09T04:08:41.860Z,15.23
2023-04-09T04:10:14.951Z,15.35
2023-04-09T04:11:50.487Z,15.15
2023-04-09T04:13:23.994Z,15.80
2023-04-09T04:15:01.639Z,16.42
2023-04-09T04:16:41.341Z,15.32
2023-04-09T04:18:13.400Z,16.70
2023-04-09T04:19:51.651Z,16.50
2023-04-09T04:21:23.694Z,16.00
2023-04-09T04:23:02.466Z,15.52
2023-04-09T04:24:34.977Z,15.48
2023-04-09T04:26:11.055Z,15.38
2023-04-09T04:27:43.530Z,15.70
2023-04-09T04:29:17.037Z,15.50
2023-04-09T04:30:55.407Z,14.65
2023-04-09T04:32:27.561Z,14.27
2023-04-09T04:34:00.203Z,15.45
2023-04-09T04:35:32.292Z,15.25
2023-04-09T04:37:07.013Z,15.15
2023-04-09T04:38:41.387Z,15.00
2023-04-09T04:40:19.046Z,15.05
2023-04-09T04:41:51.172Z,14.80
2023-04-09T04:43:29.041Z,14.82
2023-04-09T04:45:03.481Z,14.48
2023-04-09T04:46:43.485Z,14.05
2023-04-09T04:48:16.237Z,14.13
2023-04-09T04:49:48.078Z,14.23
2023-04-09T04:51:19.943Z,15.10
2023-04-09T04:53:03.567Z,14.80
2023-04-09T04:54:40.819Z,15.45
2023-04-09T04:56:15.917Z,15.25
2023-04-09T04:57:59.785Z,14.93
2023-04-09T04:59:38.965Z,15.18
2023-04-09T05:01:12.059Z,14.68
2023-04-09T05:02:44.054Z,14.95
2023-04-09T05:04:27.930Z,14.60
2023-04-09T05:06:01.501Z,14.98
2023-04-09T05:07:40.014Z,15.43
2023-04-09T05:09:11.869Z,15.48
2023-04-09T05:10:51.496Z,15.38
2023-04-09T05:12:24.933Z,15.82
2023-04-09T05:13:58.128Z,16.42
2023-04-09T05:15:30.025Z,15.80
2023-04-09T05:17:01.948Z,16.15
2023-04-09T05:18:44.490Z,15.98
2023-04-09T05:20:16.529Z,16.73
2023-04-09T05:21:57.527Z,15.70
2023-04-09T05:23:29.459Z,16.42
2023-04-09T05:25:01.879Z,15.93
2023-04-09T05:26:34.461Z,16.65
2023-04-09T05:28:07.615Z,16.17
2023-04-09T05:29:40.712Z,16.13
2023-04-09T05:31:15.781Z,17.42
2023-04-09T05:32:56.157Z,15.52
2023-04-09T05:34:31.078Z,16.90
2023-04-09T05:36:03.185Z,15.52
2023-04-09T05:37:35.716Z,15.68
2023-04-09T05:39:07.772Z,17.08
2023-04-09T05:40:40.259Z,17.10
2023-04-09T05:42:17.600Z,17.08
2023-04-09T05:44:00.496Z,16.83
2023-04-09T05:45:32.778Z,15.48
2023-04-09T05:47:05.180Z,17.30
2023-04-09T05:48:44.980Z,17.02
2023-04-09T05:50:17.113Z,16.90
2023-04-09T05:51:50.643Z,15.85
2023-04-09T05:53:28.465Z,16.63
2023-04-09T05:55:01.771Z,17.02
2023-04-09T05:56:45.444Z,16.80
2023-04-09T05:58:19.004Z,17.17
2023-04-09T05:59:51.898Z,15.15
2023-04-09T06:01:23.734Z,16.83
2023-04-09T06:02:55.636Z,16.05
2023-04-09T06:04:27.509Z,17.52
2023-04-09T06:05:59.350Z,17.65
2023-04-09T06:07:31.179Z,17.23
2023-04-09T06:09:03.780Z,17.52
2023-04-09T06:10:35.915Z,18.17
2023-04-09T06:12:07.778Z,18.10
2023-04-09T06:13:39.678Z,18.83
2023-04-09T06:15:11.984Z,18.38
2023-04-09T06:16:43.817Z,17.48
2023-04-09T06:18:15.764Z,18.02
2023-04-09T06:19:47.582Z,18.10
2023-04-09T06:21:19.369Z,18.60
2023-04-09T06:22:51.193Z,17.55
2023-04-09T06:24:23.439Z,17.38
2023-04-09T06:25:55.272Z,18.25
2023-04-09T06:27:27.449Z,18.25
2023-04-09T06:28:59.381Z,17.38
2023-04-09T06:30:32.129Z,18.17
2023-04-09T06:32:04.227Z,18.83
2023-04-09T06:33:36.244Z,18.38
2023-04-09T06:35:10.913Z,20.45
2023-04-09T06:36:44.114Z,19.45
2023-04-09T06:38:16.535Z,18.63
2023-04-09T06:40:00.613Z,18.77
2023-04-09T06:41:33.399Z,18.30
2023-04-09T06:43:06.113Z,18.38
2023-04-09T06:44:49.594Z,17.40
2023-04-09T06:46:21.574Z,18.02
2023-04-09T06:47:53.418Z,17.67
2023-04-09T06:49:25.370Z,17.42
2023-04-09T06:50:57.248Z,17.50
2023-04-09T06:52:29.061Z,19.83
2023-04-09T06:54:01.148Z,18.88
2023-04-09T06:55:32.935Z,18.63
2023-04-09T06:57:04.706Z,18.80
2023-04-09T06:58:36.802Z,17.55
2023-04-09T07:00:09.855Z,18.42
2023-04-09T07:01:42.156Z,18.85
2023-04-09T07:03:14.900Z,18.02
2023-04-09T07:04:47.863Z,18.75
2023-04-09T07:06:19.783Z,18.08
2023-04-09T07:07:51.722Z,18.55
2023-04-09T07:09:23.545Z,18.60
2023-04-09T07:10:55.406Z,20.25
2023-04-09T07:12:31.849Z,19.95
2023-04-09T07:14:03.648Z,19.17
2023-04-09T07:15:35.582Z,19.98
2023-04-09T07:17:07.398Z,21.00
2023-04-09T07:18:39.301Z,19.98
2023-04-09T07:20:11.739Z,18.92
2023-04-09T07:21:43.599Z,19.30
2023-04-09T07:23:15.787Z,19.23
2023-04-09T07:24:54.210Z,18.88
2023-04-09T07:26:26.261Z,18.50
2023-04-09T07:27:58.437Z,20.13
2023-04-09T07:29:30.232Z,20.98
2023-04-09T07:31:03.262Z,20.17
2023-04-09T07:32:35.122Z,20.98
2023-04-09T07:34:07.281Z,21.65
2023-04-09T07:35:39.140Z,21.00
2023-04-09T07:37:11.489Z,20.25
2023-04-09T07:38:43.285Z,21.02
2023-04-09T07:40:15.168Z,20.38
2023-04-09T07:41:47.642Z,20.00
2023-04-09T07:43:21.340Z,19.75
2023-04-09T07:44:54.226Z,20.67
2023-04-09T07:46:26.098Z,21.27
2023-04-09T07:47:58.094Z,20.08
2023-04-09T07:49:29.958Z,19.75
2023-04-09T07:51:01.989Z,20.10
2023-04-09T07:52:33.795Z,19.45
2023-04-09T07:54:06.006Z,19.52
2023-04-09T07:55:38.240Z,19.63
2023-04-09T07:57:10.032Z,19.92
2023-04-09T07:58:41.846Z,19.08
2023-04-09T08:00:14.133Z,18.38
2023-04-09T08:01:46.179Z,18.60
2023-04-09T08:03:19.236Z,18.35
2023-04-09T08:04:51.445Z,17.95
2023-04-09T08:06:23.341Z,19.30
2023-04-09T08:07:55.185Z,18.30
2023-04-09T08:09:27.022Z,18.08
2023-04-09T08:10:59.024Z,18.98
2023-04-09T08:12:30.838Z,18.67
2023-04-09T08:14:03.905Z,19.05
2023-04-09T08:15:35.715Z,18.90
2023-04-09T08:17:07.603Z,18.00
2023-04-09T08:18:40.094Z,18.30
2023-04-09T08:20:12.924Z,18.05
2023-04-09T08:21:44.917Z,18.50
2023-04-09T08:23:16.752Z,18.65
2023-04-09T08:24:52.822Z,18.65
2023-04-09T08:26:24.914Z,17.80
2023-04-09T08:27:57.151Z,18.83
2023-04-09T08:29:29.412Z,18.13
2023-04-09T08:31:01.313Z,18.23
2023-04-09T08:32:33.183Z,18.27
2023-04-09T08:34:06.182Z,19.40
2023-04-09T08:35:40.590Z,20.08
2023-04-09T08:37:12.411Z,19.75
2023-04-09T08:38:45.333Z,18.15
2023-04-09T08:40:17.166Z,18.45
2023-04-09T08:41:50.598Z,18.95
2023-04-09T08:43:25.114Z,18.58
2023-04-09T08:45:05.918Z,18.70
2023-04-09T08:46:37.782Z,17.42
2023-04-09T08:48:10.741Z,18.25
2023-04-09T08:49:42.694Z,17.63
2023-04-09T08:51:15.254Z,17.02
2023-04-09T08:52:48.762Z,17.27
2023-04-09T08:54:20.642Z,17.38
2023-04-09T08:55:52.528Z,17.00
2023-04-09T08:57:24.517Z,18.63
2023-04-09T08:58:56.695Z,17.52
2023-04-09T09:00:28.518Z,17.80
2023-04-09T09:02:11.323Z,17.85
2023-04-09T09:04:06.116Z,16.65
2023-04-09T09:05:40.065Z,16.92
2023-04-09T09:07:12.389Z,17.45
2023-04-09T09:08:44.278Z,16.83
2023-04-09T09:10:16.382Z,16.23
2023-04-09T09:11:51.250Z,16.55
2023-04-09T09:13:25.205Z,16.10
2023-04-09T09:14:57.029Z,16.10
2023-04-09T09:16:29.025Z,16.50
2023-04-09T09:18:01.860Z,17.50
2023-04-09T09:19:34.116Z,17.55
2023-04-09T09:21:17.855Z,16.77
2023-04-09T09:22:54.746Z,16.90
2023-04-09T09:24:27.864Z,16.90
2023-04-09T09:25:59.689Z,18.05
2023-04-09T09:27:40.658Z,17.92
2023-04-09T09:29:12.599Z,17.52
2023-04-09T09:30:47.951Z,16.00
2023-04-09T09:32:23.669Z,16.58
2023-04-09T09:33:55.645Z,16.63
2023-04-09T09:35:27.810Z,17.13
2023-04-09T09:36:59.610Z,17.05
2023-04-09T09:38:32.363Z,17.23
2023-04-09T09:40:04.836Z,16.42
2023-04-09T09:41:37.712Z,15.80
2023-04-09T09:43:09.841Z,16.52
2023-04-09T09:44:41.689Z,17.00
2023-04-09T09:46:13.611Z,16.95
2023-04-09T09:47:46.803Z,17.17
2023-04-09T09:49:18.668Z,16.52
2023-04-09T09:50:52.017Z,17.40
2023-04-09T09:52:27.321Z,17.30
2023-04-09T09:53:59.895Z,18.08
2023-04-09T09:55:41.258Z,18.05
2023-04-09T09:58:56.550Z,16.02
2023-04-09T10:00:31.935Z,17.83
2023-04-09T10:02:17.709Z,16.75
2023-04-09T10:03:51.959Z,16.58
2023-04-09T10:05:27.085Z,18.55
2023-04-09T10:07:01.956Z,19.25
2023-04-09T10:08:34.999Z,18.02
2023-04-09T10:10:08.165Z,17.95
2023-04-09T10:11:44.077Z,17.70
2023-04-09T10:13:35.257Z,18.42
2023-04-09T10:15:07.969Z,18.38
2023-04-09T10:16:40.736Z,18.67
2023-04-09T10:18:12.808Z,18.35
2023-04-09T10:19:54.006Z,19.70
2023-04-09T10:21:31.445Z,17.95
2023-04-09T10:23:09.780Z,17.73
2023-04-09T10:24:42.367Z,19.13
2023-04-09T10:26:14.209Z,17.95
2023-04-09T10:27:46.534Z,17.83
2023-04-09T10:29:29.381Z,17.40
2023-04-09T10:31:01.529Z,16.52
2023-04-09T10:32:37.128Z,16.70
2023-04-09T10:34:10.833Z,17.10
2023-04-09T10:35:46.575Z,16.05
2023-04-09T10:37:23.906Z,16.25
2023-04-09T10:38:55.980Z,15.98
2023-04-09T10:40:28.976Z,15.77
2023-04-09T10:42:07.539Z,15.93
2023-04-09T10:43:39.602Z,15.73
2023-04-09T10:45:14.444Z,16.45
2023-04-09T10:46:46.509Z,18.35
2023-04-09T10:48:20.867Z,16.80
2023-04-09T10:49:52.687Z,16.30
2023-04-09T10:51:25.119Z,16.25
2023-04-09T10:52:59.781Z,16.25
2023-04-09T10:54:34.441Z,16.55
2023-04-09T10:56:16.790Z,16.40
2023-04-09T10:57:48.909Z,16.02
2023-04-09T10:59:20.871Z,16.70
2023-04-09T11:00:54.454Z,15.70
2023-04-09T11:02:38.690Z,16.55
2023-04-09T11:04:20.794Z,15.93
2023-04-09T11:06:11.324Z,15.57
2023-04-09T11:07:52.532Z,16.17
2023-04-09T11:09:24.322Z,14.77
2023-04-09T11:10:58.666Z,14.40
2023-04-09T11:12:30.487Z,13.52
2023-04-09T11:14:02.622Z,15.32
2023-04-09T11:15:37.728Z,14.30
2023-04-09T11:17:09.581Z,14.13
2023-04-09T11:18:41.439Z,15.70
2023-04-09T11:20:24.283Z,16.63
2023-04-09T11:21:56.354Z,16.48
2023-04-09T11:23:28.823Z,15.82
2023-04-09T11:25:01.456Z,15.48
2023-04-09T11:26:36.749Z,16.27
2023-04-09T11:28:08.768Z,15.60
2023-04-09T11:29:40.753Z,16.77
2023-04-09T11:31:12.613Z,15.80
2023-04-09T11:32:44.919Z,16.13
2023-04-09T11:34:17.596Z,16.10
2023-04-09T11:35:49.446Z,14.73
2023-04-09T11:37:21.312Z,15.55
2023-04-09T11:38:55.256Z,15.60
2023-04-09T11:40:29.420Z,14.65
2023-04-09T11:42:02.095Z,16.05
2023-04-09T11:43:36.589Z,15.40
2023-04-09T11:45:10.049Z,14.95
2023-04-09T11:46:42.586Z,15.00
2023-04-09T11:48:15.186Z,14.40
2023-04-09T11:49:47.468Z,15.40
2023-04-09T11:51:19.973Z,16.20
2023-04-09T11:52:52.649Z,15.45
2023-04-09T11:54:24.491Z,14.63
2023-04-09T11:55:56.525Z,15.20
2023-04-09T11:57:47.332Z,15.05
2023-04-09T11:59:19.139Z,15.27
2023-04-09T12:00:56.507Z,15.30
2023-04-09T12:02:30.324Z,14.45
2023-04-09T12:04:02.422Z,15.32
2023-04-09T12:05:35.840Z,15.13
2023-04-09T12:07:10.947Z,14.38
2023-04-09T12:08:42.754Z,14.55
2023-04-09T12:10:14.682Z,14.20
2023-04-09T12:11:46.584Z,13.73
2023-04-09T12:13:18.410Z,15.20
2023-04-09T12:14:52.044Z,14.48
2023-04-09T12:16:23.880Z,14.15
2023-04-09T12:17:56.233Z,14.90
2023-04-09T12:19:28.314Z,14.18
2023-04-09T12:21:01.563Z,14.38
2023-04-09T12:22:33.368Z,15.10
2023-04-09T12:24:05.489Z,13.82
2023-04-09T12:25:42.383Z,12.77
2023-04-09T12:27:14.315Z,13.30
2023-04-09T12:28:46.099Z,13.00
2023-04-09T12:30:17.933Z,13.10
2023-04-09T12:31:50.003Z,12.50
2023-04-09T12:33:22.049Z,14.00
2023-04-09T12:34:53.835Z,13.35
2023-04-09T12:36:26.835Z,12.18
2023-04-09T12:37:59.561Z,13.10
2023-04-09T12:39:33.126Z,13.32
2023-04-09T12:41:06.064Z,12.85
2023-04-09T12:42:37.875Z,13.15
2023-04-09T12:44:13.007Z,11.52
2023-04-09T12:45:44.895Z,12.25
2023-04-09T12:47:16.878Z,11.95
2023-04-09T12:48:48.723Z,12.05
2023-04-09T12:50:20.638Z,12.27
2023-04-09T12:51:52.426Z,12.43
2023-04-09T12:53:24.230Z,11.75
2023-04-09T12:54:56.102Z,12.13
2023-04-09T12:56:29.780Z,12.73
2023-04-09T12:58:02.682Z,11.52
2023-04-09T12:59:34.473Z,12.32
2023-04-09T13:01:06.973Z,11.95
2023-04-09T13:02:39.327Z,12.18
2023-04-09T13:04:11.375Z,12.07
2023-04-09T13:05:43.690Z,12.15
2023-04-09T13:07:17.670Z,11.93
2023-04-09T13:08:49.474Z,11.73
2023-04-09T13:10:21.439Z,12.05
2023-04-09T13:11:53.394Z,11.15
2023-04-09T13:13:25.550Z,11.45
2023-04-09T13:14:59.368Z,11.18
2023-04-09T13:16:31.728Z,10.90
2023-04-09T13:18:03.788Z,10.80
2023-04-09T13:19:35.708Z,10.23
2023-04-09T13:21:07.939Z,10.95
2023-04-09T13:22:39.851Z,12.35
2023-04-09T13:24:12.150Z,11.05
2023-04-09T13:25:43.950Z,11.00
2023-04-09T13:27:16.828Z,9.88
2023-04-09T13:28:48.652Z,8.95
2023-04-09T13:30:22.599Z,8.77
2023-04-09T13:31:54.430Z,9.02
2023-04-09T13:33:26.242Z,9.57
2023-04-09T13:34:58.212Z,9.75
2023-04-09T13:36:31.622Z,9.00
2023-04-09T13:38:03.431Z,9.27
2023-04-09T13:39:35.383Z,9.38
2023-04-09T13:41:07.346Z,8.52
2023-04-09T13:42:39.196Z,8.98
2023-04-09T13:44:11.686Z,9.55
2023-04-09T13:45:43.486Z,9.00
2023-04-09T13:47:17.267Z,8.65
2023-04-09T13:48:49.075Z,8.65
2023-04-09T13:50:21.809Z,9.07
2023-04-09T13:51:53.653Z,9.85
2023-04-09T13:53:25.867Z,9.85
2023-04-09T13:54:57.694Z,9.00
2023-04-09T13:56:31.578Z,9.02
2023-04-09T13:58:03.393Z,9.18
2023-04-09T13:59:35.173Z,9.43
2023-04-09T14:01:08.152Z,9.73
2023-04-09T14:02:40.202Z,9.40
2023-04-09T14:04:12.196Z,9.93
2023-04-09T14:05:44.080Z,9.63
2023-04-09T14:07:15.887Z,10.10
2023-04-09T14:08:47.675Z,11.10
2023-04-09T14:10:19.465Z,9.73
2023-04-09T14:11:51.683Z,9.25
2023-04-09T14:13:23.471Z,10.57
2023-04-09T14:14:55.280Z,10.07
2023-04-09T14:16:28.308Z,10.00
2023-04-09T14:18:00.238Z,10.70
2023-04-09T14:19:32.079Z,10.10
2023-04-09T14:21:04.018Z,9.48
2023-04-09T14:22:35.847Z,9.10
2023-04-09T14:24:07.955Z,9.32
2023-04-09T14:25:40.416Z,10.63
2023-04-09T14:27:12.224Z,9.80
2023-04-09T14:28:45.050Z,9.85
2023-04-09T14:30:17.868Z,10.10
2023-04-09T14:31:49.862Z,10.98
2023-04-09T14:33:21.852Z,10.32
2023-04-09T14:34:54.140Z,10.13
2023-04-09T14:36:27.488Z,10.63
2023-04-09T14:37:59.305Z,10.27
2023-04-09T14:39:31.260Z,11.13
2023-04-09T14:41:03.063Z,9.77
2023-04-09T14:42:34.854Z,9.60
2023-04-09T14:44:06.658Z,11.10
2023-04-09T14:45:38.581Z,10.63
2023-04-09T14:47:10.422Z,10.05
2023-04-09T14:48:42.238Z,10.43
2023-04-09T14:50:14.034Z,10.45
2023-04-09T14:51:45.852Z,10.25
2023-04-09T14:53:18.193Z,9.93
2023-04-09T14:54:50.053Z,9.93
2023-04-09T14:56:22.062Z,10.27
2023-04-09T14:57:53.930Z,10.52
2023-04-09T14:59:26.432Z,10.48
2023-04-09T15:00:58.281Z,9.65
2023-04-09T15:02:30.302Z,9.60
2023-04-09T15:04:02.408Z,10.15
2023-04-09T15:05:34.755Z,9.85
2023-04-09T15:07:07.050Z,9.32
2023-04-09T15:08:38.859Z,9.63
2023-04-09T15:10:11.210Z,9.25
2023-04-09T15:11:43.009Z,8.23
2023-04-09T15:13:14.807Z,8.52
2023-04-09T15:14:46.616Z,9.60
2023-04-09T15:16:23.387Z,9.45
2023-04-09T15:17:55.525Z,8.15
2023-04-09T15:19:27.378Z,8.63
2023-04-09T15:20:59.303Z,9.10
2023-04-09T15:22:31.384Z,8.13
2023-04-09T15:24:03.898Z,9.13
2023-04-09T15:25:36.559Z,8.05
2023-04-09T15:27:08.355Z,8.35
2023-04-09T15:28:40.146Z,8.20
2023-04-09T15:30:12.186Z,8.52
2023-04-09T15:31:44.163Z,7.95
2023-04-09T15:33:16.220Z,7.43
2023-04-09T15:34:48.011Z,7.47
2023-04-09T15:36:19.826Z,7.80
2023-04-09T15:37:51.926Z,7.65
2023-04-09T15:39:24.861Z,7.28
2023-04-09T15:40:57.227Z,7.40
2023-04-09T15:42:29.041Z,7.82
2023-04-09T15:44:00.969Z,8.38
2023-04-09T15:45:32.823Z,8.15
2023-04-09T15:47:04.638Z,8.32
2023-04-09T15:48:37.096Z,8.32
2023-04-09T15:50:09.414Z,7.97
2023-04-09T15:51:41.183Z,8.10
2023-04-09T15:53:16.205Z,8.63
2023-04-09T15:54:48.069Z,8.48
2023-04-09T15:56:20.069Z,9.90
2023-04-09T15:57:51.980Z,9.30
2023-04-09T15:59:23.788Z,9.70
2023-04-09T16:00:55.645Z,9.13
2023-04-09T16:02:27.646Z,9.50
2023-04-09T16:03:59.697Z,10.05
2023-04-09T16:05:31.537Z,9.38
2023-04-09T16:07:04.395Z,9.30
2023-04-09T16:08:37.434Z,10.07
2023-04-09T16:10:09.789Z,10.07
2023-04-09T16:11:41.624Z,9.38
2023-04-09T16:13:13.426Z,10.30
2023-04-09T16:14:45.254Z,10.15
2023-04-09T16:16:17.104Z,11.68
2023-04-09T16:17:48.989Z,11.20
2023-04-09T16:19:21.584Z,10.98
2023-04-09T16:20:54.212Z,9.85
2023-04-09T16:22:26.179Z,9.60
2023-04-09T16:23:58.078Z,8.63
2023-04-09T16:25:30.119Z,8.43
2023-04-09T16:27:02.106Z,9.75
2023-04-09T16:28:33.916Z,8.65
2023-04-09T16:30:06.380Z,7.85
2023-04-09T16:31:39.361Z,8.43
2023-04-09T16:33:12.790Z,8.70
2023-04-09T16:34:44.634Z,8.90
2023-04-09T16:36:16.597Z,8.00
2023-04-09T16:37:48.666Z,8.43
2023-04-09T16:39:20.615Z,8.65
2023-04-09T16:40:52.422Z,9.52
2023-04-09T16:42:24.241Z,12.98
2023-04-09T16:43:56.068Z,10.60
2023-04-09T16:45:28.410Z,10.32
2023-04-09T16:47:01.308Z,9.73
2023-04-09T16:48:34.114Z,9.57
2023-04-09T16:50:10.688Z,8.93
2023-04-09T16:51:42.598Z,9.15
2023-04-09T16:53:14.449Z,9.00
2023-04-09T16:54:46.706Z,9.60
2023-04-09T16:56:18.594Z,10.68
2023-04-09T16:57:50.441Z,9.80
2023-04-09T16:59:22.282Z,9.80
2023-04-09T17:00:54.136Z,9.50
2023-04-09T17:02:27.474Z,9.82
2023-04-09T17:04:00.888Z,9.13
2023-04-09T17:05:32.884Z,9.55
2023-04-09T17:07:04.763Z,9.63
2023-04-09T17:08:36.637Z,9.18
2023-04-09T17:10:09.032Z,8.38
2023-04-09T17:11:40.837Z,8.45
2023-04-09T17:13:12.767Z,8.50
2023-04-09T17:14:45.341Z,8.75
2023-04-09T17:16:18.488Z,8.52
2023-04-09T17:17:53.223Z,8.55
2023-04-09T17:19:25.106Z,8.98
2023-04-09T17:20:57.225Z,8.80
2023-04-09T17:22:29.077Z,9.27
2023-04-09T17:24:03.013Z,10.13
2023-04-09T17:25:34.807Z,8.98
2023-04-09T17:27:07.020Z,8.80
2023-04-09T17:28:38.853Z,9.15
2023-04-09T17:30:12.266Z,8.60
2023-04-09T17:31:44.603Z,8.35
2023-04-09T17:33:16.467Z,9.23
2023-04-09T17:34:49.645Z,8.48
2023-04-09T17:36:22.865Z,8.85
2023-04-09T17:37:55.501Z,9.02
2023-04-09T17:39:29.553Z,8.40
2023-04-09T17:41:01.633Z,8.77
2023-04-09T17:42:33.491Z,9.38
2023-04-09T17:44:05.339Z,8.48
2023-04-09T17:45:37.126Z,9.05
2023-04-09T17:47:09.039Z,9.30
2023-04-09T17:48:41.909Z,8.38
2023-04-09T17:50:13.804Z,7.93
2023-04-09T17:51:45.643Z,8.23
2023-04-09T17:53:17.794Z,8.48
2023-04-09T17:54:51.176Z,8.40
2023-04-09T17:56:23.102Z,9.27
2023-04-09T17:57:54.991Z,8.57
2023-04-09T17:59:27.456Z,8.60
2023-04-09T18:00:59.792Z,8.65
2023-04-09T18:02:32.944Z,8.52
2023-04-09T18:04:05.202Z,8.38
2023-04-09T18:05:37.478Z,8.98
2023-04-09T18:07:09.394Z,9.77
2023-04-09T18:08:41.987Z,9.50
2023-04-09T18:10:13.781Z,9.90
2023-04-09T18:11:46.404Z,9.98
2023-04-09T18:13:18.309Z,9.68
2023-04-09T18:14:50.698Z,8.93
2023-04-09T18:16:23.443Z,8.90
2023-04-09T18:17:55.698Z,9.75
2023-04-09T18:19:27.618Z,9.57
2023-04-09T18:20:59.413Z,10.00
2023-04-09T18:22:31.377Z,9.75
2023-04-09T18:24:04.225Z,9.55
2023-04-09T18:25:36.306Z,9.65
2023-04-09T18:27:08.460Z,8.93
2023-04-09T18:28:40.558Z,9.07
2023-04-09T18:30:12.598Z,8.88
2023-04-09T18:31:44.448Z,9.27
2023-04-09T18:33:16.458Z,9.30
2023-04-09T18:34:48.480Z,10.00
2023-04-09T18:36:20.406Z,11.13
2023-04-09T18:37:52.209Z,10.57
2023-04-09T18:39:24.077Z,10.40
2023-04-09T18:40:58.838Z,10.52
2023-04-09T18:42:30.997Z,11.18
2023-04-09T18:44:02.914Z,11.82
2023-04-09T18:45:34.871Z,12.45
2023-04-09T18:47:09.544Z,18.20
2023-04-09T18:48:43.510Z,25.88
2023-04-09T18:50:15.729Z,33.88
2023-04-09T18:51:47.540Z,36.47
2023-04-09T18:53:19.978Z,36.95
2023-04-09T18:54:51.866Z,34.42
2023-04-09T18:56:24.854Z,32.05
2023-04-09T18:57:57.609Z,32.00
2023-04-09T18:59:29.549Z,30.33
2023-04-09T19:01:08.775Z,25.42
2023-04-09T19:02:40.978Z,20.67
2023-04-09T19:04:13.058Z,16.73
2023-04-09T19:05:45.085Z,13.55
2023-04-09T19:07:17.301Z,13.02
2023-04-09T19:08:50.297Z,12.45
2023-04-09T19:10:22.162Z,11.68
2023-04-09T19:11:53.988Z,11.02
2023-04-09T19:13:25.870Z,10.52
2023-04-09T19:15:00.401Z,9.80
2023-04-09T19:16:32.677Z,9.73
2023-04-09T19:18:04.561Z,9.85
2023-04-09T19:19:36.409Z,9.23
2023-04-09T19:21:08.903Z,9.30
2023-04-09T19:22:40.769Z,8.40
2023-04-09T19:24:12.782Z,8.55
2023-04-09T19:25:44.693Z,9.50
2023-04-09T19:27:17.008Z,9.75
2023-04-09T19:28:48.853Z,9.90
2023-04-09T19:30:21.444Z,11.85
2023-04-09T19:31:53.294Z,11.27
2023-04-09T19:33:26.626Z,11.70
2023-04-09T19:34:58.479Z,11.05
2023-04-09T19:36:32.203Z,10.77
2023-04-09T19:38:05.087Z,10.20
2023-04-09T19:39:37.143Z,10.40
2023-04-09T19:41:09.194Z,10.00
2023-04-09T19:42:41.399Z,10.40
2023-04-09T19:44:13.218Z,10.40
2023-04-09T19:45:45.018Z,10.82
2023-04-09T19:47:17.157Z,11.10
2023-04-09T19:48:49.038Z,11.25
2023-04-09T19:50:21.014Z,12.63
2023-04-09T19:51:53.000Z,10.90
2023-04-09T19:53:24.778Z,11.60
2023-04-09T19:54:56.912Z,11.90
2023-04-09T19:56:28.730Z,13.35
2023-04-09T19:58:01.139Z,14.88
2023-04-09T19:59:36.444Z,13.55
2023-04-09T20:01:08.260Z,13.93
2023-04-09T20:02:41.782Z,14.55
2023-04-09T20:04:13.860Z,14.15
2023-04-09T20:05:45.712Z,14.07
2023-04-09T20:07:17.513Z,14.68
2023-04-09T20:08:49.810Z,14.43
2023-04-09T20:10:21.748Z,15.32
2023-04-09T20:11:54.119Z,14.70
2023-04-09T20:13:25.903Z,14.32
2023-04-09T20:14:58.224Z,13.43
2023-04-09T20:16:30.113Z,13.88